Time;durP1;ratioP1;P1;durP2;ratioP2;P2;SDS_P1;SDS_P2;PMS_P1;PMS_P2;Temp;Humidity;BMP_temperature;BMP_pressure;BME280_temperature;BME280_humidity;BME280_pressure;Samples;Min_cycle;Max_cycle;Signal;HPM_P1;HPM_P2
2023/12/02 00:01:49;;;;;;;27.70;13.40;;;;;;;-2.69;100.00;100797.84;6367553;22;20327;-76
2023/12/02 00:04:14;;;;;;;26.17;11.68;;;;;;;-2.70;100.00;100801.41;6339750;22;20085;-76
2023/12/02 00:06:40;;;;;;;26.13;13.23;;;;;;;-2.81;100.00;100802.34;6339828;22;20007;-76
2023/12/02 00:09:05;;;;;;;24.58;13.18;;;;;;;-2.88;100.00;100796.78;6339760;22;20105;-76
2023/12/02 00:11:30;;;;;;;25.98;12.68;;;;;;;-2.88;100.00;100801.19;6367953;22;20113;-75
2023/12/02 00:13:56;;;;;;;25.05;12.27;;;;;;;-2.99;100.00;100786.38;6367858;22;20002;-76
2023/12/02 00:16:21;;;;;;;29.10;12.95;;;;;;;-3.06;100.00;100787.84;6367352;22;20003;-75
2023/12/02 00:18:46;;;;;;;27.95;13.07;;;;;;;-3.14;100.00;100798.97;6367202;22;20135;-76
2023/12/02 00:21:12;;;;;;;23.40;11.90;;;;;;;-3.12;100.00;100797.03;6367250;22;20052;-76
2023/12/02 00:23:37;;;;;;;24.80;12.23;;;;;;;-3.03;100.00;100805.91;6367255;22;20006;-75
2023/12/02 00:26:02;;;;;;;28.92;12.63;;;;;;;-3.02;100.00;100797.09;6339576;22;20006;-75
2023/12/02 00:28:28;;;;;;;26.88;13.65;;;;;;;-2.98;100.00;100795.06;6339437;22;20014;-76
2023/12/02 00:30:53;;;;;;;30.13;14.05;;;;;;;-3.00;100.00;100783.91;6367306;22;20082;-75
2023/12/02 00:33:18;;;;;;;23.73;12.02;;;;;;;-2.94;100.00;100797.28;6339572;22;20044;-75
2023/12/02 00:35:44;;;;;;;31.05;13.32;;;;;;;-2.89;100.00;100794.28;6367487;22;20006;-74
2023/12/02 00:38:09;;;;;;;27.27;15.30;;;;;;;-2.91;100.00;100797.03;6339434;22;20017;-75
2023/12/02 00:40:34;;;;;;;25.80;12.95;;;;;;;-2.97;100.00;100787.09;6367226;22;20010;-74
2023/12/02 00:42:59;;;;;;;21.05;11.90;;;;;;;-2.94;100.00;100791.22;6340541;22;20025;-75
2023/12/02 00:45:25;;;;;;;26.55;13.30;;;;;;;-2.86;100.00;100794.06;6368788;22;20006;-75
2023/12/02 00:47:50;;;;;;;26.90;13.73;;;;;;;-2.87;100.00;100797.63;6368592;22;20007;-75
2023/12/02 00:50:16;;;;;;;28.75;14.90;;;;;;;-2.88;100.00;100786.34;6368641;22;20010;-74
2023/12/02 00:52:41;;;;;;;27.52;13.48;;;;;;;-2.91;100.00;100789.19;6368751;22;19998;-75
2023/12/02 00:55:07;;;;;;;29.35;14.27;;;;;;;-2.95;100.00;100789.56;6368708;22;20010;-75
2023/12/02 00:57:33;;;;;;;27.45;13.05;;;;;;;-2.95;100.00;100792.19;6340693;22;20006;-74
2023/12/02 00:59:58;;;;;;;27.95;13.30;;;;;;;-2.94;100.00;100797.28;6340743;22;20414;-74
2023/12/02 01:02:23;;;;;;;29.60;13.80;;;;;;;-2.96;100.00;100786.13;6369207;22;19998;-75
2023/12/02 01:04:49;;;;;;;26.20;12.52;;;;;;;-2.91;100.00;100807.50;6340638;22;20010;-74
2023/12/02 01:07:14;;;;;;;26.08;13.40;;;;;;;-2.96;100.00;100785.28;6368564;22;20081;-74
2023/12/02 01:09:39;;;;;;;27.00;12.82;;;;;;;-2.97;100.00;100786.25;6340744;22;20059;-75
2023/12/02 01:12:05;;;;;;;24.10;14.00;;;;;;;-2.99;100.00;100781.16;6340877;22;20002;-75
2023/12/02 01:14:30;;;;;;;27.80;13.82;;;;;;;-2.89;100.00;100789.91;6368520;22;20077;-75
2023/12/02 01:16:56;;;;;;;30.77;14.40;;;;;;;-2.91;100.00;100780.50;6368503;22;20300;-74
2023/12/02 01:19:21;;;;;;;26.95;12.73;;;;;;;-2.93;100.00;100783.25;6340572;22;20013;-75
2023/12/02 01:21:46;;;;;;;28.35;13.10;;;;;;;-2.86;100.00;100775.75;6368589;22;20527;-75
2023/12/02 01:24:13;;;;;;;29.38;13.77;;;;;;;-2.85;100.00;100775.59;6368587;22;20003;-74
2023/12/02 01:26:38;;;;;;;32.42;14.10;;;;;;;-2.81;100.00;100782.22;6368522;22;20009;-74
2023/12/02 01:29:04;;;;;;;29.20;13.63;;;;;;;-2.76;100.00;100781.84;6368744;22;20003;-75
2023/12/02 01:31:29;;;;;;;23.67;13.35;;;;;;;-2.76;100.00;100778.41;6368566;22;20040;-77
2023/12/02 01:33:54;;;;;;;27.80;13.07;;;;;;;-2.74;100.00;100792.19;6340586;22;20374;-76
2023/12/02 01:36:20;;;;;;;27.90;13.52;;;;;;;-2.74;100.00;100793.00;6368626;22;20377;-76
2023/12/02 01:38:45;;;;;;;27.23;12.80;;;;;;;-2.70;100.00;100799.63;6368377;22;20002;-75
2023/12/02 01:41:10;;;;;;;27.40;12.85;;;;;;;-2.71;100.00;100794.53;6368623;22;19999;-75
2023/12/02 01:43:37;;;;;;;29.08;13.98;;;;;;;-2.70;100.00;100807.47;6340875;22;19998;-75
2023/12/02 01:46:03;;;;;;;30.27;14.45;;;;;;;-2.76;100.00;100805.38;6340639;22;20423;-76
2023/12/02 01:48:32;;;;;;;27.42;13.43;;;;;;;-2.77;100.00;100808.97;6368519;22;20002;-77
2023/12/02 01:50:58;;;;;;;27.02;13.18;;;;;;;-2.79;100.00;100816.13;6340572;22;20017;-76
2023/12/02 01:53:24;;;;;;;28.65;13.15;;;;;;;-2.78;100.00;100816.94;6340590;22;20007;-77
2023/12/02 01:55:49;;;;;;;29.27;13.45;;;;;;;-2.79;100.00;100815.28;6368554;22;20003;-76
2023/12/02 01:58:14;;;;;;;30.92;14.52;;;;;;;-2.80;100.00;100814.47;6368486;22;20344;-76
2023/12/02 02:00:40;;;;;;;28.90;14.90;;;;;;;-2.82;100.00;100813.75;6369253;22;20382;-76
2023/12/02 02:03:05;;;;;;;30.70;15.75;;;;;;;-2.82;100.00;100824.22;6368487;22;20059;-75
2023/12/02 02:05:31;;;;;;;29.15;14.35;;;;;;;-2.84;100.00;100813.88;6368359;22;20003;-75
2023/12/02 02:07:56;;;;;;;25.63;13.27;;;;;;;-2.81;100.00;100816.25;6340421;22;20002;-77
2023/12/02 02:10:22;;;;;;;26.38;12.90;;;;;;;-2.72;100.00;100824.28;6340464;22;20006;-76
2023/12/02 02:12:48;;;;;;;26.38;11.85;;;;;;;-2.74;100.00;100816.56;6368415;22;20035;-77
2023/12/02 02:15:13;;;;;;;29.25;12.55;;;;;;;-2.86;100.00;100817.59;6368478;22;20025;-76
2023/12/02 02:17:39;;;;;;;23.00;11.10;;;;;;;-2.84;100.00;100813.06;6368356;22;20422;-76
2023/12/02 02:20:05;;;;;;;25.55;13.25;;;;;;;-2.98;100.00;100810.75;6340480;22;20013;-76
2023/12/02 02:22:31;;;;;;;30.10;14.15;;;;;;;-3.02;100.00;100818.03;6368469;22;20006;-76
2023/12/02 02:24:56;;;;;;;26.48;12.63;;;;;;;-3.05;100.00;100815.66;6340774;22;20072;-76
2023/12/02 02:27:22;;;;;;;27.95;12.68;;;;;;;-3.14;100.00;100812.03;6368510;22;20002;-76
2023/12/02 02:29:47;;;;;;;24.83;13.82;;;;;;;-3.18;100.00;100815.88;6368213;22;20029;-75
2023/12/02 02:32:12;;;;;;;31.70;14.18;;;;;;;-3.22;100.00;100808.38;6340512;22;20006;-77
2023/12/02 02:34:41;;;;;;;26.13;12.48;;;;;;;-3.19;100.00;100823.81;6368276;22;20051;-76
2023/12/02 02:37:07;;;;;;;24.70;12.88;;;;;;;-3.23;100.00;100814.56;6340432;22;20113;-76
2023/12/02 02:39:32;;;;;;;26.95;12.82;;;;;;;-3.32;100.00;100808.31;6340333;22;20006;-76
2023/12/02 02:41:58;;;;;;;25.10;12.55;;;;;;;-3.29;100.00;100820.28;6340590;22;20022;-75
2023/12/02 02:44:23;;;;;;;27.05;13.20;;;;;;;-3.31;100.00;100816.97;6340272;22;20078;-75
2023/12/02 02:46:48;;;;;;;26.15;13.32;;;;;;;-3.32;100.00;100820.53;6368464;22;19998;-75
2023/12/02 02:49:14;;;;;;;26.20;14.02;;;;;;;-3.28;100.00;100832.41;6368288;22;20009;-76
2023/12/02 02:51:39;;;;;;;27.02;12.10;;;;;;;-3.27;100.00;100821.00;6340380;22;20028;-76
2023/12/02 02:54:05;;;;;;;26.75;13.10;;;;;;;-3.24;100.00;100831.19;6340315;22;20055;-75
2023/12/02 02:56:30;;;;;;;25.90;13.00;;;;;;;-3.27;100.00;100819.22;6368287;22;20415;-75
2023/12/02 02:58:56;;;;;;;25.85;13.65;;;;;;;-3.20;100.00;100833.44;6368030;22;20006;-75
2023/12/02 03:01:22;;;;;;;28.35;12.65;;;;;;;-3.16;100.00;100847.94;6340290;22;20002;-76
2023/12/02 03:03:48;;;;;;;27.02;13.25;;;;;;;-3.10;100.00;100838.75;6339790;22;20010;-76
2023/12/02 03:06:13;;;;;;;28.08;13.90;;;;;;;-3.11;100.00;100842.31;6340134;22;20423;-76
2023/12/02 03:08:39;;;;;;;32.08;15.35;;;;;;;-3.07;100.00;100840.28;6367964;22;20016;-76
2023/12/02 03:11:05;;;;;;;27.23;12.60;;;;;;;-3.02;100.00;100849.41;6340176;22;20175;-76
2023/12/02 03:13:30;;;;;;;28.73;13.77;;;;;;;-3.02;100.00;100848.56;6340288;22;19998;-76
2023/12/02 03:15:55;;;;;;;28.48;14.15;;;;;;;-2.97;100.00;100852.47;6340442;22;20332;-77
2023/12/02 03:18:21;;;;;;;26.20;13.55;;;;;;;-2.95;100.00;100847.09;6368063;22;20381;-76
2023/12/02 03:20:46;;;;;;;24.63;12.05;;;;;;;-2.88;100.00;100859.56;6340128;22;20041;-75
2023/12/02 03:23:11;;;;;;;31.48;15.00;;;;;;;-2.89;100.00;100842.22;6367723;22;20006;-75
2023/12/02 03:25:37;;;;;;;30.05;13.90;;;;;;;-2.94;100.00;100836.50;6367844;22;20039;-75
2023/12/02 03:28:02;;;;;;;27.85;13.15;;;;;;;-2.86;100.00;100844.59;6340014;22;20006;-76
2023/12/02 03:30:27;;;;;;;30.60;14.25;;;;;;;-2.90;100.00;100845.75;6368051;22;20045;-75
2023/12/02 03:32:53;;;;;;;27.83;14.27;;;;;;;-2.92;100.00;100837.22;6340004;22;20379;-75
2023/12/02 03:35:19;;;;;;;31.00;13.40;;;;;;;-2.97;100.00;100828.94;6339943;22;20006;-76
2023/12/02 03:37:45;;;;;;;27.73;13.00;;;;;;;-2.94;100.00;100835.69;6367547;22;20010;-76
2023/12/02 03:40:10;;;;;;;29.88;15.23;;;;;;;-2.97;100.00;100842.00;6367917;22;20018;-76
2023/12/02 03:42:36;;;;;;;33.15;14.80;;;;;;;-2.97;100.00;100842.00;6339990;22;20007;-76
2023/12/02 03:45:02;;;;;;;29.70;14.18;;;;;;;-3.00;100.00;100839.66;6368072;22;20419;-76
2023/12/02 03:47:28;;;;;;;28.02;13.88;;;;;;;-3.02;100.00;100830.28;6339942;22;20063;-75
2023/12/02 03:49:53;;;;;;;32.97;14.10;;;;;;;-3.04;100.00;100830.41;6339826;22;20010;-76
2023/12/02 03:52:19;;;;;;;30.80;14.48;;;;;;;-3.07;100.00;100842.91;6339821;22;20017;-76
2023/12/02 03:54:44;;;;;;;30.20;14.55;;;;;;;-3.06;100.00;100857.63;6367637;22;20006;-76
2023/12/02 03:57:09;;;;;;;33.47;15.98;;;;;;;-3.06;100.00;100855.03;6367667;22;20081;-75
2023/12/02 03:59:35;;;;;;;27.42;13.60;;;;;;;-3.04;100.00;100843.47;6339616;22;20085;-75
2023/12/02 04:02:01;;;;;;;30.92;14.90;;;;;;;-2.99;100.00;100871.84;6367711;22;20048;-75
2023/12/02 04:04:26;;;;;;;30.75;14.77;;;;;;;-3.03;100.00;100850.38;6339834;22;20363;-75
2023/12/02 04:06:52;;;;;;;28.63;14.48;;;;;;;-3.04;100.00;100859.16;6339664;22;20085;-75
2023/12/02 04:09:17;;;;;;;29.98;15.40;;;;;;;-3.04;100.00;100855.72;6367636;22;20324;-75
2023/12/02 04:11:46;;;;;;;31.83;14.07;;;;;;;-2.95;100.00;100862.81;6367577;22;20010;-76
2023/12/02 04:14:12;;;;;;;30.20;15.57;;;;;;;-2.95;100.00;100868.84;6367349;22;19998;-75
2023/12/02 04:16:42;;;;;;;29.55;13.55;;;;;;;-2.96;100.00;100875.06;6367982;22;20246;-75
2023/12/02 04:19:10;;;;;;;26.80;13.10;;;;;;;-2.95;100.00;100875.88;6340959;22;20077;-76
2023/12/02 04:21:36;;;;;;;30.65;14.45;;;;;;;-2.90;100.00;100877.16;6341125;22;20089;-76
2023/12/02 04:24:02;;;;;;;29.75;13.63;;;;;;;-2.93;100.00;100882.63;6340930;22;20081;-75
2023/12/02 04:26:28;;;;;;;26.25;14.45;;;;;;;-2.86;100.00;100898.69;6341127;22;20025;-75
2023/12/02 04:28:54;;;;;;;32.17;16.17;;;;;;;-2.88;100.00;100896.19;6368960;22;20459;-75
2023/12/02 04:31:19;;;;;;;28.67;14.88;;;;;;;-2.91;100.00;100890.34;6341080;22;20370;-76
2023/12/02 04:33:45;;;;;;;27.48;14.40;;;;;;;-2.94;100.00;100891.44;6341051;22;20366;-75
2023/12/02 04:36:11;;;;;;;30.13;14.82;;;;;;;-2.96;100.00;100888.13;6368709;22;20084;-75
2023/12/02 04:38:36;;;;;;;27.45;14.25;;;;;;;-2.98;100.00;100879.59;6368484;22;20013;-76
2023/12/02 04:41:03;;;;;;;30.83;14.93;;;;;;;-2.95;100.00;100888.97;6368798;22;20419;-75
2023/12/02 04:43:28;;;;;;;29.10;14.20;;;;;;;-2.98;100.00;100882.19;6368884;22;20006;-75
2023/12/02 04:45:53;;;;;;;25.73;13.02;;;;;;;-3.09;100.00;100870.97;6340723;22;20012;-76
2023/12/02 04:48:19;;;;;;;28.00;14.15;;;;;;;-3.05;100.00;100888.88;6368721;22;20007;-76
2023/12/02 04:50:44;;;;;;;26.38;12.68;;;;;;;-3.08;100.00;100883.91;6340864;22;20010;-76
2023/12/02 04:53:09;;;;;;;28.10;12.75;;;;;;;-3.08;100.00;100888.31;6368764;22;20073;-75
2023/12/02 04:55:37;;;;;;;26.02;12.48;;;;;;;-3.10;100.00;100896.28;6369230;22;20010;-76
2023/12/02 04:58:03;;;;;;;27.33;13.68;;;;;;;-3.10;100.00;100890.22;6340866;22;20005;-75
2023/12/02 05:00:28;;;;;;;26.75;14.02;;;;;;;-3.10;100.00;100898.91;6368877;22;20034;-76
2023/12/02 05:02:54;;;;;;;30.00;14.45;;;;;;;-3.12;100.00;100896.41;6340931;22;20335;-75
2023/12/02 05:05:20;;;;;;;30.35;13.77;;;;;;;-3.08;100.00;100907.44;6368766;22;20006;-76
2023/12/02 05:07:45;;;;;;;31.98;14.98;;;;;;;-3.07;100.00;100909.09;6340720;22;20013;-75
2023/12/02 05:10:11;;;;;;;29.95;13.77;;;;;;;-3.08;100.00;100906.63;6368592;22;20002;-76
2023/12/02 05:12:36;;;;;;;32.53;15.82;;;;;;;-3.08;100.00;100917.91;6368732;22;20006;-76
2023/12/02 05:15:03;;;;;;;24.67;13.13;;;;;;;-3.10;100.00;100911.16;6368712;22;19999;-76
2023/12/02 05:17:28;;;;;;;29.83;15.00;;;;;;;-3.06;100.00;100918.63;6340623;22;20006;-75
2023/12/02 05:19:54;;;;;;;29.13;14.77;;;;;;;-3.07;100.00;100909.09;6368637;22;20327;-76
2023/12/02 05:22:20;;;;;;;28.77;13.40;;;;;;;-3.06;100.00;100912.56;6368846;22;20073;-75
2023/12/02 05:24:45;;;;;;;30.60;14.73;;;;;;;-3.06;100.00;100923.84;6340702;22;20363;-76
2023/12/02 05:27:11;;;;;;;22.00;11.60;;;;;;;-3.09;100.00;100921.47;6340342;22;20006;-76
2023/12/02 05:29:36;;;;;;;26.60;13.23;;;;;;;-3.12;100.00;100927.78;6368632;22;20013;-76
2023/12/02 05:32:01;;;;;;;28.65;13.63;;;;;;;-3.18;100.00;100916.97;6368626;22;20450;-76
2023/12/02 05:34:27;;;;;;;28.33;13.30;;;;;;;-3.17;100.00;100923.88;6369281;22;20344;-76
2023/12/02 05:36:52;;;;;;;28.48;13.38;;;;;;;-3.18;100.00;100915.22;6368512;22;20052;-75
2023/12/02 05:39:17;;;;;;;27.20;14.27;;;;;;;-3.24;100.00;100912.25;6368188;22;20010;-76
2023/12/02 05:41:43;;;;;;;29.40;13.73;;;;;;;-3.24;100.00;100913.06;6368360;22;20442;-76
2023/12/02 05:44:09;;;;;;;28.17;14.55;;;;;;;-3.25;100.00;100902.75;6340533;22;20055;-76
2023/12/02 05:46:34;;;;;;;34.83;16.73;;;;;;;-3.31;100.00;100903.25;6340627;22;20012;-76
2023/12/02 05:49:00;;;;;;;29.73;13.82;;;;;;;-3.28;100.00;100921.28;6368444;22;20029;-76
2023/12/02 05:51:25;;;;;;;30.65;15.00;;;;;;;-3.28;100.00;100923.91;6368387;22;20032;-75
2023/12/02 05:53:51;;;;;;;24.10;13.35;;;;;;;-3.25;100.00;100945.41;6368357;22;20077;-75
2023/12/02 05:56:19;;;;;;;29.13;14.15;;;;;;;-3.31;100.00;100940.66;6368428;22;20327;-75
2023/12/02 05:58:44;;;;;;;33.10;14.35;;;;;;;-3.39;100.00;100943.06;6368795;22;20194;-75
2023/12/02 06:01:09;;;;;;;32.30;14.38;;;;;;;-3.48;100.00;100942.00;6368380;22;20006;-77
2023/12/02 06:03:35;;;;;;;29.83;14.27;;;;;;;-3.50;100.00;100943.91;6368646;22;20028;-75
2023/12/02 06:06:01;;;;;;;29.23;14.15;;;;;;;-3.49;100.00;100952.56;6368447;22;20007;-75
2023/12/02 06:08:26;;;;;;;28.38;14.70;;;;;;;-3.48;100.00;100944.59;6368269;22;20085;-75
2023/12/02 06:10:51;;;;;;;32.40;15.25;;;;;;;-3.49;100.00;100944.72;6368466;22;20415;-75
2023/12/02 06:13:17;;;;;;;27.55;13.38;;;;;;;-3.46;100.00;100942.72;6340314;22;20002;-75
2023/12/02 06:15:42;;;;;;;29.80;14.82;;;;;;;-3.46;100.00;100936.66;6368334;22;20003;-75
2023/12/02 06:18:07;;;;;;;30.92;15.13;;;;;;;-3.40;100.00;100951.03;6368096;22;20017;-75
2023/12/02 06:20:32;;;;;;;32.20;15.55;;;;;;;-3.37;100.00;100937.72;6368339;22;20010;-75
2023/12/02 06:22:58;;;;;;;30.15;15.45;;;;;;;-3.40;100.00;100945.81;6368361;22;20113;-76
2023/12/02 06:25:23;;;;;;;30.67;14.93;;;;;;;-3.33;100.00;100957.44;6368508;22;19999;-76
2023/12/02 06:27:48;;;;;;;28.13;15.13;;;;;;;-3.30;100.00;100957.19;6340576;22;20010;-76
2023/12/02 06:30:17;;;;;;;28.88;15.02;;;;;;;-3.30;100.00;100944.94;6368305;22;19998;-76
2023/12/02 06:32:43;;;;;;;30.95;15.65;;;;;;;-3.26;100.00;100963.81;6368274;22;20336;-76
2023/12/02 06:35:09;;;;;;;32.80;14.38;;;;;;;-3.25;100.00;100960.25;6368291;22;20002;-76
2023/12/02 06:37:34;;;;;;;36.15;16.02;;;;;;;-3.22;100.00;100963.44;6367985;22;20096;-75
2023/12/02 06:39:59;;;;;;;27.70;13.15;;;;;;;-3.15;100.00;100967.25;6339659;22;19998;-75
2023/12/02 06:42:25;;;;;;;29.02;13.70;;;;;;;-3.15;100.00;100966.44;6368170;22;20027;-75
2023/12/02 06:44:51;;;;;;;26.73;13.68;;;;;;;-3.12;100.00;100972.25;6368158;22;20006;-75
2023/12/02 06:47:16;;;;;;;33.13;16.05;;;;;;;-3.16;100.00;100970.00;6368136;22;20005;-75
2023/12/02 06:49:42;;;;;;;28.60;13.98;;;;;;;-3.20;100.00;100966.78;6340245;22;20032;-75
2023/12/02 06:52:08;;;;;;;27.50;15.07;;;;;;;-3.14;100.00;100973.31;6368258;22;20055;-75
2023/12/02 06:54:37;;;;;;;29.77;14.90;;;;;;;-3.16;100.00;100981.28;6368321;22;20377;-75
2023/12/02 06:57:05;;;;;;;28.38;13.88;;;;;;;-3.20;100.00;100982.47;6340392;22;20051;-75
2023/12/02 06:59:31;;;;;;;27.02;14.55;;;;;;;-3.24;100.00;100980.22;6340153;22;20324;-74
2023/12/02 07:01:57;;;;;;;27.17;14.35;;;;;;;-3.21;100.00;100998.28;6340195;22;20005;-75
2023/12/02 07:04:22;;;;;;;30.15;14.05;;;;;;;-3.20;100.00;101005.16;6367988;22;20085;-75
2023/12/02 07:06:49;;;;;;;31.10;13.93;;;;;;;-3.18;100.00;101003.25;6367976;22;20331;-75
2023/12/02 07:09:14;;;;;;;29.90;13.82;;;;;;;-3.16;100.00;101006.59;6340066;22;20014;-75
2023/12/02 07:11:39;;;;;;;31.83;15.38;;;;;;;-3.19;100.00;100999.81;6368162;22;20002;-74
2023/12/02 07:14:05;;;;;;;32.00;14.70;;;;;;;-3.20;100.00;101000.75;6340134;22;20010;-74
2023/12/02 07:16:30;;;;;;;31.65;14.35;;;;;;;-3.13;100.00;101009.81;6340025;22;20007;-74
2023/12/02 07:18:55;;;;;;;31.27;14.70;;;;;;;-3.13;100.00;101007.19;6339832;22;20089;-74
2023/12/02 07:21:22;;;;;;;32.28;15.20;;;;;;;-3.07;100.00;101026.78;6367868;22;20097;-74
2023/12/02 07:23:47;;;;;;;32.40;15.27;;;;;;;-3.02;100.00;101022.03;6340076;22;20009;-75
2023/12/02 07:26:12;;;;;;;32.70;15.00;;;;;;;-2.97;100.00;101016.41;6340027;22;20002;-74
2023/12/02 07:28:38;;;;;;;31.48;13.38;;;;;;;-2.91;100.00;101024.59;6339930;22;20124;-75
2023/12/02 07:31:03;;;;;;;28.08;13.38;;;;;;;-2.87;100.00;101012.97;6339955;22;20047;-75
2023/12/02 07:33:28;;;;;;;29.10;16.20;;;;;;;-2.77;100.00;101017.44;6339868;22;20089;-75
2023/12/02 07:35:54;;;;;;;33.05;15.02;;;;;;;-2.67;100.00;101021.78;6340056;22;20009;-74
2023/12/02 07:38:19;;;;;;;31.73;14.50;;;;;;;-2.60;100.00;101020.38;6339811;22;20013;-74
2023/12/02 07:40:45;;;;;;;34.00;17.90;;;;;;;-2.60;100.00;101022.16;6367741;22;20005;-74
2023/12/02 07:43:11;;;;;;;25.70;13.77;;;;;;;-2.51;100.00;101027.47;6339994;22;20006;-74
2023/12/02 07:45:36;;;;;;;30.30;14.63;;;;;;;-2.47;100.00;101030.66;6367836;22;20013;-74
2023/12/02 07:48:03;;;;;;;32.65;16.85;;;;;;;-2.52;100.00;101028.41;6339674;22;20458;-75
2023/12/02 07:50:28;;;;;;;33.17;15.13;;;;;;;-2.73;100.00;101035.38;6367971;22;20403;-74
2023/12/02 07:52:54;;;;;;;33.65;16.42;;;;;;;-2.84;100.00;101044.09;6368974;22;20051;-74
2023/12/02 07:55:19;;;;;;;33.00;16.55;;;;;;;-2.95;100.00;101046.72;6341255;22;20010;-74
2023/12/02 07:57:44;;;;;;;30.75;15.27;;;;;;;-2.99;100.00;101053.16;6368848;22;20467;-75
2023/12/02 08:00:11;;;;;;;34.95;16.75;;;;;;;-3.03;100.00;101045.69;6341100;22;20063;-75
2023/12/02 08:02:36;;;;;;;30.00;15.38;;;;;;;-3.03;100.00;101049.13;6340979;22;20327;-75
2023/12/02 08:05:02;;;;;;;30.25;15.45;;;;;;;-3.15;100.00;101053.53;6341101;22;20017;-74
2023/12/02 08:07:27;;;;;;;33.58;16.08;;;;;;;-3.20;100.00;101060.06;6368895;22;19998;-74
2023/12/02 08:09:53;;;;;;;34.17;16.30;;;;;;;-3.23;100.00;101068.97;6340984;22;20085;-73
2023/12/02 08:12:18;;;;;;;37.75;16.42;;;;;;;-3.24;100.00;101066.50;6368874;22;20014;-73
2023/12/02 08:14:44;;;;;;;39.75;17.58;;;;;;;-3.30;100.00;101067.81;6369091;22;20014;-74
2023/12/02 08:17:09;;;;;;;35.15;16.13;;;;;;;-3.28;100.00;101070.28;6369052;22;20058;-74
2023/12/02 08:19:35;;;;;;;35.25;16.00;;;;;;;-3.13;100.00;101080.41;6340719;22;20006;-73
2023/12/02 08:22:00;;;;;;;32.15;16.65;;;;;;;-3.05;100.00;101082.41;6368759;22;20300;-73
2023/12/02 08:24:26;;;;;;;33.60;15.88;;;;;;;-2.91;100.00;101092.59;6368796;22;20009;-74
2023/12/02 08:26:51;;;;;;;37.55;16.48;;;;;;;-2.31;100.00;101091.31;6368779;22;20424;-74
2023/12/02 08:29:17;;;;;;;38.78;18.00;;;;;;;-1.33;100.00;101088.34;6368836;22;20316;-73
2023/12/02 08:31:42;;;;;;;35.80;17.30;;;;;;;-0.28;100.00;101092.22;6341191;22;20038;-74
2023/12/02 08:34:07;;;;;;;32.92;16.10;;;;;;;0.21;100.00;101114.88;6368972;22;20006;-73
2023/12/02 08:36:33;;;;;;;32.22;15.63;;;;;;;-0.10;100.00;101101.06;6368927;22;20037;-74
2023/12/02 08:38:58;;;;;;;35.38;16.50;;;;;;;-0.43;100.00;101101.47;6341026;22;20331;-72
2023/12/02 08:41:24;;;;;;;34.75;15.48;;;;;;;-0.72;100.00;101112.72;6368988;22;20003;-74
2023/12/02 08:43:49;;;;;;;28.20;14.68;;;;;;;-0.86;100.00;101112.28;6368905;22;20006;-73
2023/12/02 08:46:16;;;;;;;32.53;16.23;;;;;;;-0.90;100.00;101118.75;6368808;22;20013;-74
2023/12/02 08:48:42;;;;;;;29.35;14.88;;;;;;;-0.97;100.00;101113.22;6368709;22;19998;-74
2023/12/02 08:51:07;;;;;;;30.30;15.48;;;;;;;-1.05;100.00;101116.50;6368705;22;20014;-74
2023/12/02 08:53:33;;;;;;;33.15;16.55;;;;;;;-1.07;100.00;101121.06;6340876;22;20085;-74
2023/12/02 08:55:59;;;;;;;32.60;14.93;;;;;;;-1.06;100.00;101122.72;6368707;22;20010;-74
2023/12/02 08:58:24;;;;;;;31.00;16.33;;;;;;;-1.12;100.00;101117.16;6368582;22;20002;-74
2023/12/02 09:00:51;;;;;;;30.98;16.70;;;;;;;-1.17;100.00;101122.78;6368670;22;20009;-75
2023/12/02 09:03:16;;;;;;;26.38;13.82;;;;;;;-1.22;100.00;101109.22;6340275;22;20010;-74
2023/12/02 09:05:42;;;;;;;31.33;16.67;;;;;;;-1.23;100.00;101114.63;6368881;22;19999;-75
2023/12/02 09:08:07;;;;;;;29.42;15.30;;;;;;;-0.88;100.00;101115.03;6368948;22;20046;-74
2023/12/02 09:10:32;;;;;;;39.22;18.00;;;;;;;-0.23;100.00;101128.59;6368754;22;20006;-74
2023/12/02 09:12:58;;;;;;;33.50;15.70;;;;;;;0.43;100.00;101126.91;6368618;22;20010;-74
2023/12/02 09:15:23;;;;;;;33.08;15.88;;;;;;;0.72;100.00;101132.09;6368899;22;20003;-75
2023/12/02 09:18:10;;;;;;;32.00;16.17;;;;;;;0.60;100.00;101134.06;6369866;22;20399;-75
2023/12/02 09:20:45;;;;;;;30.98;16.60;;;;;;;0.33;100.00;101133.97;6368734;22;20365;-75
2023/12/02 09:23:12;;;;;;;27.95;16.08;;;;;;;0.50;100.00;101137.66;6368553;22;20030;-75
2023/12/02 09:25:39;;;;;;;35.42;17.35;;;;;;;1.27;100.00;101136.59;6340834;22;20107;-78
2023/12/02 09:28:05;;;;;;;34.92;17.48;;;;;;;2.34;100.00;101138.31;6369551;22;20411;-76
2023/12/02 09:30:35;;;;;;;34.45;15.93;;;;;;;3.17;100.00;101143.91;6340994;22;20101;-76
2023/12/02 09:33:00;;;;;;;28.27;15.50;;;;;;;3.92;100.00;101134.25;6369343;22;20415;-78
2023/12/02 09:35:26;;;;;;;26.60;15.48;;;;;;;4.28;100.00;101149.81;6315133;22;20017;-74
2023/12/02 09:37:52;;;;;;;31.25;16.73;;;;;;;4.39;100.00;101148.66;6341032;22;20373;-76
2023/12/02 09:40:23;;;;;;;28.50;15.30;;;;;;;4.45;100.00;101159.41;6341035;22;20121;-76
2023/12/02 09:43:00;;;;;;;27.75;15.50;;;;;;;4.46;100.00;101153.13;6340726;22;20428;-77
2023/12/02 09:45:42;;;;;;;26.98;14.10;;;;;;;4.24;100.00;101156.44;6340786;22;20415;-75
2023/12/02 09:48:22;;;;;;;28.40;15.68;;;;;;;3.90;100.00;101152.09;6340643;22;20085;-75
2023/12/02 09:51:16;;;;;;;29.08;15.23;;;;;;;3.53;100.00;101155.16;6340815;22;20007;-77
2023/12/02 09:53:49;;;;;;;31.98;16.42;;;;;;;3.04;100.00;101159.38;6340689;22;20079;-77
2023/12/02 09:56:19;;;;;;;29.23;14.73;;;;;;;2.57;100.00;101154.47;6368679;22;20010;-76
2023/12/02 09:58:46;;;;;;;30.73;16.33;;;;;;;2.52;100.00;101154.09;6368722;22;20055;-75
2023/12/02 10:01:21;;;;;;;29.30;14.80;;;;;;;3.30;100.00;101149.63;6368663;22;20029;-77
2023/12/02 10:04:14;;;;;;;29.88;15.30;;;;;;;4.38;100.00;101153.13;6368674;22;20037;-76
2023/12/02 10:06:49;;;;;;;27.65;14.85;;;;;;;5.16;100.00;101165.72;6368738;22;20045;-77
2023/12/02 10:09:37;;;;;;;30.80;14.82;;;;;;;5.40;100.00;101167.47;6340844;22;20392;-76
2023/12/02 10:12:36;;;;;;;27.40;14.80;;;;;;;4.81;100.00;101172.28;6340552;22;20491;-78
2023/12/02 10:15:05;;;;;;;27.45;14.48;;;;;;;4.35;100.00;101170.19;6368514;22;20066;-78
2023/12/02 10:18:00;;;;;;;26.30;14.57;;;;;;;4.48;100.00;101166.19;6368507;22;20006;-77
2023/12/02 10:20:36;;;;;;;29.33;15.00;;;;;;;4.38;100.00;101157.59;6330095;22;20423;-78
2023/12/02 10:23:28;;;;;;;27.08;15.00;;;;;;;4.18;100.00;101167.69;6339979;22;20043;-78
2023/12/02 10:26:27;;;;;;;28.85;15.85;;;;;;;4.00;100.00;101168.63;6368565;22;20123;-77
2023/12/02 10:29:14;;;;;;;29.25;15.65;;;;;;;4.05;100.00;101170.81;6360544;22;20478;-77
2023/12/02 10:32:03;;;;;;;30.70;16.08;;;;;;;4.13;100.00;101167.34;6368540;22;20084;-78
2023/12/02 10:34:41;;;;;;;29.63;15.20;;;;;;;3.59;100.00;101166.91;6355493;22;20450;-78
2023/12/02 10:37:09;;;;;;;29.65;16.25;;;;;;;3.14;100.00;101170.66;6368472;22;20033;-81
2023/12/02 10:39:49;;;;;;;28.25;15.63;;;;;;;2.93;100.00;101164.97;6368439;22;20439;-78
2023/12/02 10:42:18;;;;;;;28.45;16.15;;;;;;;3.59;100.00;101175.66;6368677;22;20006;-78
2023/12/02 10:44:53;;;;;;;29.73;15.02;;;;;;;3.90;100.00;101170.63;6368543;22;20077;-80
2023/12/02 10:47:19;;;;;;;31.40;15.05;;;;;;;3.53;100.00;101165.72;6368647;22;20006;-82
2023/12/02 10:49:45;;;;;;;29.27;15.98;;;;;;;3.20;100.00;101174.50;6340643;22;20033;-81
2023/12/02 10:52:13;;;;;;;31.42;15.63;;;;;;;2.91;100.00;101174.84;6368761;22;20012;-80
2023/12/02 10:54:43;;;;;;;28.50;15.38;;;;;;;2.69;100.00;101173.53;6340911;22;20002;-79
2023/12/02 10:57:10;;;;;;;28.00;15.23;;;;;;;2.35;100.00;101162.91;6340684;22;20045;-80
2023/12/02 11:00:06;;;;;;;29.85;15.38;;;;;;;1.91;100.00;101168.09;6368172;22;20006;-80
2023/12/02 11:02:46;;;;;;;29.52;15.43;;;;;;;1.60;100.00;101175.50;6368478;22;20373;-81